createdAt,value
2022-10-05T00:03:11.400Z,5.00
2022-10-05T00:06:14.372Z,5.00
2022-10-05T00:09:20.808Z,5.07
2022-10-05T00:12:26.802Z,4.13
2022-10-05T00:15:30.601Z,4.27
2022-10-05T00:18:34.055Z,4.13
2022-10-05T00:21:37.542Z,5.00
2022-10-05T00:24:40.528Z,4.40
2022-10-05T00:27:47.380Z,4.70
2022-10-05T00:30:50.356Z,4.07
2022-10-05T00:33:55.005Z,4.00
2022-10-05T00:36:57.998Z,4.20
2022-10-05T00:40:01.011Z,3.97
2022-10-05T00:43:25.571Z,4.03
2022-10-05T00:46:39.573Z,3.93
2022-10-05T00:50:10.731Z,4.00
2022-10-05T00:53:25.392Z,3.87
2022-10-05T00:56:52.374Z,3.70
2022-10-05T01:00:06.386Z,3.90
2022-10-05T01:03:17.747Z,3.87
2022-10-05T01:06:30.974Z,3.97
2022-10-05T01:09:42.618Z,3.70
2022-10-05T01:12:52.816Z,4.00
2022-10-05T01:16:05.676Z,3.83
2022-10-05T01:19:20.129Z,3.40
2022-10-05T01:22:37.627Z,3.37
2022-10-05T01:25:52.170Z,3.20
2022-10-05T01:29:02.490Z,3.67
2022-10-05T01:32:14.690Z,3.20
2022-10-05T01:35:31.114Z,3.13
2022-10-05T01:38:44.954Z,3.33
2022-10-05T01:42:02.218Z,3.67
2022-10-05T01:45:13.035Z,3.37
2022-10-05T01:48:23.626Z,2.90
2022-10-05T01:51:38.002Z,3.20
2022-10-05T01:54:51.218Z,3.20
2022-10-05T01:58:07.663Z,3.03
2022-10-05T02:01:19.484Z,2.60
2022-10-05T02:05:00.412Z,2.73
2022-10-05T02:08:01.313Z,2.60
2022-10-05T02:11:08.397Z,3.00
2022-10-05T02:14:13.679Z,2.93
2022-10-05T02:17:21.282Z,3.20
2022-10-05T02:20:30.356Z,3.27
2022-10-05T02:23:37.915Z,2.97
2022-10-05T02:26:42.828Z,2.90
2022-10-05T02:29:50.063Z,3.10
2022-10-05T02:32:59.463Z,3.00
2022-10-05T02:36:04.018Z,2.80
2022-10-05T02:39:16.206Z,2.43
2022-10-05T02:42:28.263Z,2.60
2022-10-05T02:45:42.740Z,2.97
2022-10-05T02:48:57.063Z,2.70
2022-10-05T02:52:08.470Z,2.80
2022-10-05T02:55:19.234Z,2.43
2022-10-05T02:58:26.078Z,2.17
2022-10-05T03:01:33.961Z,2.90
2022-10-05T03:04:43.594Z,3.53
2022-10-05T03:07:54.182Z,7.10
2022-10-05T03:11:07.058Z,9.03
2022-10-05T03:14:18.468Z,9.13
2022-10-05T03:17:23.764Z,8.10
2022-10-05T03:20:40.768Z,7.43
2022-10-05T03:24:00.839Z,8.20
2022-10-05T03:27:10.472Z,7.13
2022-10-05T03:30:17.574Z,6.43
2022-10-05T03:33:29.042Z,3.60
2022-10-05T03:36:43.565Z,3.87
2022-10-05T03:39:53.187Z,3.83
2022-10-05T03:43:13.210Z,4.10
2022-10-05T03:46:25.915Z,5.07
2022-10-05T03:49:41.424Z,4.00
2022-10-05T03:52:50.076Z,3.97
2022-10-05T03:55:59.637Z,4.40
2022-10-05T03:59:10.320Z,3.87
2022-10-05T04:02:21.156Z,3.63
2022-10-05T04:05:28.418Z,4.33
2022-10-05T04:08:45.400Z,3.83
2022-10-05T04:11:56.583Z,3.97
2022-10-05T04:15:04.235Z,3.60
2022-10-05T04:18:15.385Z,3.70
2022-10-05T04:21:24.172Z,2.97
2022-10-05T04:24:36.340Z,3.63
2022-10-05T04:27:43.022Z,3.37
2022-10-05T04:30:49.442Z,3.40
2022-10-05T04:34:01.146Z,3.20
2022-10-05T04:37:08.598Z,3.53
2022-10-05T04:40:28.111Z,3.00
2022-10-05T04:43:45.910Z,2.97
2022-10-05T04:47:05.378Z,3.43
2022-10-05T04:50:19.110Z,2.63
2022-10-05T04:53:31.320Z,2.93
2022-10-05T04:56:39.775Z,2.87
2022-10-05T05:00:01.709Z,3.30
2022-10-05T05:03:30.370Z,3.37
2022-10-05T05:06:39.922Z,3.07
2022-10-05T05:10:18.546Z,3.00
2022-10-05T05:13:43.270Z,3.43
2022-10-05T05:16:49.641Z,3.30
2022-10-05T05:20:01.811Z,2.37
2022-10-05T05:23:13.972Z,2.87
2022-10-05T05:26:28.506Z,2.87
2022-10-05T05:29:44.720Z,2.87
2022-10-05T05:32:59.768Z,3.00
2022-10-05T05:36:33.255Z,3.03
2022-10-05T05:39:46.871Z,3.10
2022-10-05T05:42:58.794Z,3.10
2022-10-05T05:46:08.389Z,3.20
2022-10-05T05:49:18.018Z,2.90
2022-10-05T05:52:25.554Z,2.87
2022-10-05T05:55:34.251Z,3.10
2022-10-05T05:58:45.015Z,3.40
2022-10-05T06:01:54.434Z,3.30
2022-10-05T06:05:04.295Z,3.17
2022-10-05T06:08:14.410Z,3.30
2022-10-05T06:11:22.824Z,3.40
2022-10-05T06:14:30.399Z,3.90
2022-10-05T06:17:40.860Z,3.73
2022-10-05T06:20:51.136Z,3.30
2022-10-05T06:24:00.534Z,2.90
2022-10-05T06:27:25.731Z,3.40
2022-10-05T06:30:38.897Z,3.60
2022-10-05T06:33:48.813Z,3.70
2022-10-05T06:36:57.410Z,3.47
2022-10-05T06:40:12.478Z,3.17
2022-10-05T06:43:43.686Z,3.70
2022-10-05T06:46:56.507Z,3.57
2022-10-05T06:50:13.618Z,4.17
2022-10-05T06:53:32.470Z,4.37
2022-10-05T06:56:46.440Z,4.83
2022-10-05T06:59:58.864Z,4.77
2022-10-05T07:03:10.642Z,4.97
2022-10-05T07:06:18.095Z,5.20
2022-10-05T07:09:31.225Z,5.70
2022-10-05T07:13:00.130Z,5.40
2022-10-05T07:16:12.582Z,5.80
2022-10-05T07:19:30.488Z,5.97
2022-10-05T07:22:48.673Z,6.40
2022-10-05T07:26:01.380Z,6.27
2022-10-05T07:29:23.858Z,6.60
2022-10-05T07:32:35.671Z,6.53
2022-10-05T07:36:10.224Z,6.60
2022-10-05T07:39:20.191Z,6.37
2022-10-05T07:42:32.623Z,6.60
2022-10-05T07:45:42.337Z,6.50
2022-10-05T07:48:58.055Z,6.00
2022-10-05T07:52:06.523Z,5.80
2022-10-05T07:55:20.011Z,5.97
2022-10-05T07:58:29.485Z,6.00
2022-10-05T08:01:36.566Z,6.10
2022-10-05T08:04:46.351Z,5.37
2022-10-05T08:07:53.067Z,5.97
2022-10-05T08:11:03.596Z,5.97
2022-10-05T08:14:15.525Z,6.20
2022-10-05T08:17:25.795Z,5.70
2022-10-05T08:20:36.805Z,5.90
2022-10-05T08:23:47.500Z,6.87
2022-10-05T08:26:59.857Z,21.10
2022-10-05T08:30:06.504Z,474.37
2022-10-05T08:33:17.850Z,823.37
2022-10-05T08:36:25.277Z,853.43
2022-10-05T08:39:31.942Z,841.53
2022-10-05T08:43:03.130Z,819.70
2022-10-05T08:46:33.139Z,805.37
2022-10-05T08:49:58.506Z,780.80
2022-10-05T08:53:27.735Z,768.80
2022-10-05T08:56:34.845Z,758.80
2022-10-05T09:00:03.427Z,750.77
2022-10-05T09:03:50.137Z,736.00
2022-10-05T09:07:27.325Z,647.97
2022-10-05T09:11:03.887Z,572.10
2022-10-05T09:14:29.508Z,540.80
2022-10-05T09:18:08.793Z,517.17
2022-10-05T09:21:23.525Z,517.60
2022-10-05T09:24:48.592Z,509.10
2022-10-05T09:27:57.874Z,498.00
2022-10-05T09:31:24.962Z,492.00
2022-10-05T09:34:50.251Z,480.13
2022-10-05T09:38:16.093Z,475.60
2022-10-05T09:41:49.036Z,459.57
2022-10-05T09:45:33.754Z,448.77
2022-10-05T09:49:06.077Z,441.73
2022-10-05T09:52:20.017Z,418.17
2022-10-05T09:55:43.328Z,390.10
2022-10-05T09:59:24.853Z,389.67
2022-10-05T10:02:53.279Z,380.00
2022-10-05T10:06:21.414Z,359.93
2022-10-05T10:09:37.942Z,346.40
2022-10-05T10:13:01.371Z,333.87
2022-10-05T10:16:31.739Z,328.97
2022-10-05T10:20:02.133Z,319.93
2022-10-05T10:23:23.486Z,309.00
2022-10-05T10:26:59.430Z,296.97
2022-10-05T10:30:27.747Z,288.37
2022-10-05T10:33:55.959Z,278.60
2022-10-05T10:37:25.349Z,279.20
2022-10-05T10:40:39.070Z,271.87
2022-10-05T10:44:15.947Z,272.70
2022-10-05T10:47:41.592Z,267.13
2022-10-05T10:51:18.663Z,263.93
2022-10-05T10:54:37.033Z,256.57
2022-10-05T10:57:53.236Z,256.30
2022-10-05T11:01:08.915Z,258.70
2022-10-05T11:04:41.816Z,252.40
2022-10-05T11:08:06.194Z,251.30
2022-10-05T11:11:42.512Z,239.60
2022-10-05T11:15:27.355Z,240.30
2022-10-05T11:18:46.876Z,242.73
2022-10-05T11:22:11.101Z,235.37
2022-10-05T11:25:49.720Z,234.33
2022-10-05T11:29:31.689Z,228.80
2022-10-05T11:33:11.410Z,226.13
2022-10-05T11:37:01.003Z,219.23
2022-10-05T11:40:37.830Z,223.70
2022-10-05T11:44:25.649Z,221.90
2022-10-05T11:47:32.819Z,207.53
2022-10-05T11:50:44.295Z,209.13
2022-10-05T11:53:57.927Z,207.47
2022-10-05T11:57:07.372Z,205.57
2022-10-05T12:00:17.405Z,206.30
2022-10-05T12:03:36.055Z,204.80
2022-10-05T12:06:54.760Z,202.77
2022-10-05T12:10:25.568Z,192.97
2022-10-05T12:13:37.943Z,193.17
2022-10-05T12:16:48.914Z,190.77
2022-10-05T12:19:57.813Z,188.03
2022-10-05T12:23:08.319Z,187.13
2022-10-05T12:26:17.553Z,187.47
2022-10-05T12:29:27.557Z,183.97
2022-10-05T12:32:36.015Z,180.10
2022-10-05T12:35:48.917Z,175.30
2022-10-05T12:38:59.077Z,177.10
2022-10-05T12:42:17.125Z,174.40
2022-10-05T12:45:34.273Z,171.70
2022-10-05T12:49:04.612Z,166.43
2022-10-05T12:52:14.976Z,165.80
2022-10-05T12:55:26.228Z,163.10
2022-10-05T12:58:41.116Z,160.77
2022-10-05T13:01:51.579Z,157.47
2022-10-05T13:05:00.964Z,155.90
2022-10-05T13:08:19.124Z,156.43
2022-10-05T13:11:30.395Z,155.40
2022-10-05T13:14:49.931Z,155.57
2022-10-05T13:18:05.915Z,154.27
2022-10-05T13:21:15.180Z,153.50
2022-10-05T13:24:23.328Z,150.60
2022-10-05T13:27:30.627Z,148.00
2022-10-05T13:30:36.749Z,146.53
2022-10-05T13:33:55.018Z,145.47
2022-10-05T13:37:11.163Z,143.50
2022-10-05T13:40:22.766Z,139.53
2022-10-05T13:43:33.573Z,141.43
2022-10-05T13:46:46.978Z,140.43
2022-10-05T13:49:54.894Z,142.50
2022-10-05T13:53:03.669Z,139.97
2022-10-05T13:56:17.020Z,134.07
2022-10-05T13:59:26.906Z,132.77
2022-10-05T14:02:37.030Z,133.23
2022-10-05T14:05:56.433Z,128.77
2022-10-05T14:09:00.154Z,131.23
2022-10-05T14:12:20.239Z,129.50
2022-10-05T14:15:30.645Z,127.47
2022-10-05T14:18:38.566Z,127.70
2022-10-05T14:21:49.705Z,124.80
2022-10-05T14:24:55.845Z,123.70
2022-10-05T14:28:04.694Z,122.00
2022-10-05T14:31:15.294Z,123.43
2022-10-05T14:34:29.325Z,119.23
2022-10-05T14:37:45.898Z,119.80
2022-10-05T14:41:04.853Z,114.10
2022-10-05T14:47:49.101Z,113.40
2022-10-05T14:50:59.404Z,76.83
2022-10-05T14:54:04.027Z,101.40
2022-10-05T14:57:15.955Z,30.07
2022-10-05T15:00:20.546Z,32.47
2022-10-05T15:03:41.032Z,25.90
2022-10-05T15:06:58.450Z,20.13
2022-10-05T15:10:17.431Z,19.40
2022-10-05T15:13:23.365Z,18.17
2022-10-05T15:16:31.387Z,16.03
2022-10-05T15:19:47.910Z,12.50
2022-10-05T15:23:02.727Z,12.10
2022-10-05T15:26:21.052Z,9.90
2022-10-05T15:29:51.311Z,10.50
2022-10-05T15:33:09.305Z,10.57
2022-10-05T15:36:17.686Z,11.10
2022-10-05T15:39:29.280Z,14.13
2022-10-05T15:42:38.298Z,14.20
2022-10-05T15:45:52.973Z,14.87
2022-10-05T15:49:08.523Z,16.30
2022-10-05T15:52:23.915Z,16.80
2022-10-05T15:55:36.598Z,19.37
2022-10-05T15:58:55.584Z,19.20
2022-10-05T16:02:01.936Z,20.80
2022-10-05T16:05:20.051Z,21.30
2022-10-05T16:08:54.378Z,19.77
2022-10-05T16:12:12.528Z,20.30
2022-10-05T16:15:26.490Z,17.57
2022-10-05T16:18:52.078Z,15.37
2022-10-05T16:22:02.736Z,14.83
2022-10-05T16:25:14.179Z,6.87
2022-10-05T16:28:30.147Z,5.80
2022-10-05T16:31:38.596Z,7.30
2022-10-05T16:34:57.821Z,8.50
2022-10-05T16:38:15.395Z,8.73
2022-10-05T16:41:29.239Z,7.37
2022-10-05T16:44:44.540Z,7.13
2022-10-05T16:47:54.735Z,7.50
2022-10-05T16:51:17.494Z,6.43
2022-10-05T16:54:24.487Z,7.10
2022-10-05T16:57:32.773Z,7.13
2022-10-05T17:00:52.693Z,7.10
2022-10-05T17:04:07.242Z,7.77
2022-10-05T17:07:41.382Z,7.67
2022-10-05T17:10:58.191Z,6.90
2022-10-05T17:14:24.466Z,6.07
2022-10-05T17:17:44.234Z,6.67
2022-10-05T17:20:54.219Z,7.13
2022-10-05T17:24:05.082Z,6.70
2022-10-05T17:27:20.188Z,7.10
2022-10-05T17:30:53.899Z,6.67
2022-10-05T17:34:27.551Z,7.20
2022-10-05T17:37:37.216Z,7.00
2022-10-05T17:40:41.802Z,6.10
2022-10-05T17:44:20.122Z,6.57
2022-10-05T17:48:01.646Z,6.07
2022-10-05T17:51:34.764Z,5.87
2022-10-05T17:55:14.290Z,5.87
2022-10-05T17:59:01.567Z,5.67
2022-10-05T18:02:17.144Z,5.80
2022-10-05T18:05:27.837Z,5.40
2022-10-05T18:08:39.128Z,6.07
2022-10-05T18:11:44.433Z,6.03
2022-10-05T18:15:21.344Z,5.73
2022-10-05T18:18:49.470Z,5.30
2022-10-05T18:22:08.986Z,6.67
2022-10-05T18:25:27.290Z,6.20
2022-10-05T18:28:42.815Z,6.03
2022-10-05T18:31:54.958Z,6.67
2022-10-05T18:35:05.237Z,6.30
2022-10-05T18:38:21.879Z,6.80
2022-10-05T18:41:40.979Z,6.30
2022-10-05T18:44:48.362Z,5.30
2022-10-05T18:48:05.518Z,5.70
2022-10-05T18:51:21.450Z,6.00
2022-10-05T18:54:39.506Z,6.30
2022-10-05T18:58:08.410Z,4.97
2022-10-05T19:01:36.643Z,4.87
2022-10-05T19:04:51.656Z,5.30
2022-10-05T19:08:08.026Z,5.20
2022-10-05T19:11:19.111Z,5.30
2022-10-05T19:14:32.818Z,4.87
2022-10-05T19:17:54.678Z,5.07
2022-10-05T19:21:07.696Z,4.67
2022-10-05T19:24:29.722Z,5.17
2022-10-05T19:27:49.724Z,4.17
2022-10-05T19:31:08.293Z,4.53
2022-10-05T19:34:23.218Z,4.40
2022-10-05T19:37:35.142Z,4.37
2022-10-05T19:40:43.016Z,4.10
2022-10-05T19:44:03.278Z,4.40
2022-10-05T19:47:18.768Z,4.30
2022-10-05T19:50:28.064Z,4.00
2022-10-05T19:53:32.604Z,3.70
2022-10-05T19:56:47.262Z,4.30
2022-10-05T19:59:50.658Z,3.67
2022-10-05T20:03:10.496Z,3.43
2022-10-05T20:06:13.538Z,3.70
2022-10-05T20:09:22.061Z,3.50
2022-10-05T20:12:50.640Z,3.60
2022-10-05T20:16:39.010Z,3.83
2022-10-05T20:20:01.026Z,3.70
2022-10-05T20:23:24.366Z,3.43
2022-10-05T20:27:00.446Z,3.50
2022-10-05T20:30:03.525Z,3.77
2022-10-05T20:33:11.672Z,2.93
2022-10-05T20:36:19.079Z,3.00
2022-10-05T20:39:22.434Z,3.27
2022-10-05T20:42:25.483Z,3.37
2022-10-05T20:45:28.515Z,3.13
2022-10-05T20:48:31.728Z,2.97
2022-10-05T20:51:36.384Z,2.80
2022-10-05T20:54:40.348Z,3.50
2022-10-05T20:57:43.405Z,3.33
2022-10-05T21:01:03.899Z,3.30
2022-10-05T21:04:07.018Z,3.40
2022-10-05T21:07:11.391Z,3.70
2022-10-05T21:10:14.556Z,3.40
2022-10-05T21:13:17.696Z,3.73
2022-10-05T21:16:21.137Z,3.50
2022-10-05T21:19:24.233Z,3.23
2022-10-05T21:22:28.649Z,4.00
2022-10-05T21:25:31.650Z,3.90
2022-10-05T21:28:35.240Z,3.70
2022-10-05T21:31:38.799Z,3.40
2022-10-05T21:34:42.557Z,3.80
2022-10-05T21:37:46.946Z,3.40
2022-10-05T21:40:49.994Z,3.47
2022-10-05T21:43:53.485Z,3.50
2022-10-05T21:46:56.854Z,3.03
2022-10-05T21:50:00.453Z,2.90
2022-10-05T21:53:06.597Z,3.40
2022-10-05T21:56:12.972Z,3.07
2022-10-05T21:59:19.643Z,3.50
2022-10-05T22:02:22.619Z,2.77
2022-10-05T22:05:25.671Z,3.30
2022-10-05T22:08:32.062Z,2.90
2022-10-05T22:11:35.371Z,3.00
2022-10-05T22:14:38.342Z,3.10
2022-10-05T22:17:42.234Z,2.97
2022-10-05T22:20:45.688Z,2.90
2022-10-05T22:23:50.455Z,2.93
2022-10-05T22:26:53.465Z,2.70
2022-10-05T22:30:00.195Z,2.70
2022-10-05T22:33:03.423Z,2.40
2022-10-05T22:36:07.797Z,2.30
2022-10-05T22:39:12.239Z,2.63
2022-10-05T22:42:15.268Z,2.80
2022-10-05T22:45:18.355Z,2.67
2022-10-05T22:48:21.401Z,2.33
2022-10-05T22:51:24.393Z,2.70
2022-10-05T22:54:30.484Z,2.40
2022-10-05T22:57:39.145Z,2.20
2022-10-05T23:00:57.563Z,2.80
2022-10-05T23:04:01.659Z,2.57
2022-10-05T23:07:04.799Z,2.40
2022-10-05T23:10:11.728Z,2.30
2022-10-05T23:13:15.054Z,2.50
2022-10-05T23:16:19.694Z,2.20
2022-10-05T23:19:23.865Z,2.03
2022-10-05T23:22:26.869Z,2.13
2022-10-05T23:25:31.219Z,2.40
2022-10-05T23:28:34.607Z,2.00
2022-10-05T23:31:37.683Z,2.13
2022-10-05T23:34:40.703Z,2.20
2022-10-05T23:37:45.372Z,2.50
2022-10-05T23:40:49.745Z,2.30
2022-10-05T23:43:54.740Z,2.30
2022-10-05T23:46:57.701Z,2.00
2022-10-05T23:50:00.741Z,2.07
2022-10-05T23:53:03.933Z,2.40
2022-10-05T23:56:08.684Z,2.50
2022-10-05T23:59:11.814Z,2.27
